NORTHAMPTON WEATHER

The latest weather and forecasts for Hardingstone

run by 1st Hardingstone Viking Scout Troop.


Thunder radar more information blitzortung!


Rain radar more information rain snow radar


Nearby METAR Reports

   
EGTC - Cranfield, United Kingdom
Distance from station: SE 24 km
Updated: Jun 22 2021 5:50 pm
NOT Current
Partly Cloudy  
Partly Cloudy  
   Wind: NE 11 kts
Wind: NE 11 kts
Temperature: 14°C
Dew Point: 8°C
Humidity: 67%
Barometer: 1022 mb
Clouds: Partly Cloudy
Visibility: More than 10 km
Cloud details: Partly Cloudy 3600 ft
EGTC 221650Z 04011KT 9999 SCT036 14/08 Q1022
EGTK - Oxford, United Kingdom
Distance from station: SW 51 km
Updated: Jun 22 2021 8:50 pm
NOT Current
Clear  
Clear  
   Wind: varies 2 kts
Wind: varies 2 kts
Temperature: 14°C
Dew Point: 8°C
Humidity: 67%
Barometer: 1023 mb
Visibility: More than 10 km
Cloud details: Clear
EGTK 221950Z VRB02KT CAVOK 14/08 Q1023
EGGW - Luton Airport, United Kingdom
Distance from station: SE 52 km
Updated: Jun 22 2021 10:50 pm
Clear  
Clear  
   Wind: NNE 4 kts
Wind: NNE 4 kts
Temperature: 9°C
Wind Chill: 8°C
Dew Point: 6°C
Humidity: 82%
Barometer: 1023 mb
Clouds: Clear
Visibility: More than 10 km
Cloud details: Clear
EGGW 222150Z AUTO 02004KT 9999 NCD 09/06 Q1023
EGXT - Wittering Raf, United Kingdom
Distance from station: NNE 53 km
Updated: Jun 22 2021 10:50 pm
Clear  
Clear  
   Wind: WSW 1 kts
Wind: WSW 1 kts
Temperature: 10°C
Dew Point: 7°C
Humidity: 82%
Barometer: 1023 mb
Clouds: Clear
Visibility: More than 10 km
Cloud details: Clear
EGXT 222150Z AUTO 24001KT 9999 NCD 10/07 Q1023
EGBB - Birmingham Airpo, United Kingdom
Distance from station: WNW 65 km
Updated: Jun 22 2021 10:50 pm
Clear  
Clear  
   Wind: SSE 5 kts
Wind: SSE 5 kts
Temperature: 11°C
Dew Point: 7°C
Humidity: 77%
Barometer: 1024 mb
Visibility: More than 10 km
Cloud details: Clear
EGBB 222150Z 15005KT CAVOK 11/07 Q1024
EGUB - Benson Raf, United Kingdom
Distance from station: S 67 km
Updated: Jun 22 2021 10:50 pm
Clear  
Clear  
   Wind: NE 1 kts
Wind: NE 1 kts
Temperature: 9°C
Dew Point: 7°C
Humidity: 87%
Barometer: 1023 mb
Visibility: More than 10 km
Cloud details: Clear
EGUB 222150Z 04001KT CAVOK 09/07 Q1023 NOSIG RMK BLU BLU
EGVN - Brize Norton Raf, United Kingdom
Distance from station: SW 69 km
Updated: Jun 22 2021 10:50 pm
Clear  
Clear  
   Wind: ENE 2 kts
Wind: ENE 2 kts
Temperature: 11°C
Dew Point: 7°C
Humidity: 77%
Barometer: 1024 mb
Visibility: More than 10 km
Cloud details: Clear
EGVN 222150Z 07002KT CAVOK 11/07 Q1024 NOSIG RMK BLU BLU
EGSC - Cambridge, United Kingdom
Distance from station: E 72 km
Updated: Jun 22 2021 5:50 pm
NOT Current
Partly Cloudy  
Partly Cloudy  
   Wind: NNE 11 kts
Wind: NNE 11 kts
Temperature: 15°C
Dew Point: 6°C
Humidity: 55%
Barometer: 1022 mb
Clouds: Partly Cloudy
Visibility: More than 10 km
Cloud details: Few Clouds 3500 ft,
Partly Cloudy 4500 ft
EGSC 221650Z 03011KT 9999 FEW035 SCT045 15/06 Q1022
EGNX - East Midlands, United Kingdom
Distance from station: NNW 73 km
Updated: Jun 22 2021 10:50 pm
Clear  
Clear  
   Wind: SE 4 kts
Wind: SE 4 kts
Temperature: 12°C
Dew Point: 7°C
Humidity: 72%
Barometer: 1024 mb
Visibility: More than 10 km
Cloud details: Clear
EGNX 222150Z 14004KT CAVOK 12/07 Q1024
EGWU - Northolt Raf, United Kingdom
Distance from station: SSE 80 km
Updated: Jun 22 2021 10:50 pm
Clear  
Clear  
   Wind: NNE 3 kts
Wind: NNE 3 kts
Temperature: 12°C
Dew Point: 6°C
Humidity: 67%
Barometer: 1023 mb
Visibility: More than 10 km
Cloud details: Clear
EGWU 222150Z 02003KT CAVOK 12/06 Q1023 NOSIG RMK BLU BLU
  

Script developed by  Saratoga-weather.org Adapted for the template by  Weerstation Leuven

You find our weather info also at:

UK Metoffice

WeatherCloud

Weather Underground

United Kingdom Weather Network

AWEKAS

Citizen Weather Observer Program (CWOP)

HAMweather, WeatherForYou, PWS Weather

Equipment we use:

Weather-station
Davis VP2

Weather-program
Weather Display

Provider

Davis VP2

Weather Display